Time;durP1;ratioP1;P1;durP2;ratioP2;P2;SDS_P1;SDS_P2;PMS_P1;PMS_P2;Temp;Humidity;BMP_temperature;BMP_pressure;BME280_temperature;BME280_humidity;BME280_pressure;Samples;Min_cycle;Max_cycle;Signal;HPM_P1;HPM_P2
2023/12/14 00:01:13;;;;;;;9.50;8.00;;;;;;;0.58;100.00;99072.34;110173;1234;72618;-84
2023/12/14 00:03:43;;;;;;;9.30;7.80;;;;;;;0.57;100.00;99078.48;111246;1234;60260;-83
2023/12/14 00:06:17;;;;;;;11.40;8.70;;;;;;;0.55;100.00;99081.64;112244;1233;58681;-80
2023/12/14 00:08:44;;;;;;;9.80;8.30;;;;;;;0.48;100.00;99076.27;112094;1233;72169;-84
2023/12/14 00:11:11;;;;;;;9.20;7.60;;;;;;;0.46;100.00;99066.65;111980;1233;67969;-83
2023/12/14 00:13:38;;;;;;;7.40;6.10;;;;;;;0.52;100.00;99065.52;110558;1234;71041;-84
2023/12/14 00:16:06;;;;;;;9.80;8.20;;;;;;;0.52;100.00;99065.63;110230;1235;60360;-83
2023/12/14 00:18:32;;;;;;;9.20;8.10;;;;;;;0.50;100.00;99060.80;109598;1236;60341;-79
2023/12/14 00:20:59;;;;;;;8.00;6.90;;;;;;;0.53;100.00;99062.44;108977;1237;72229;-80
2023/12/14 00:23:26;;;;;;;8.90;6.80;;;;;;;0.51;100.00;99057.86;109026;1234;70011;-82
2023/12/14 00:25:53;;;;;;;9.60;6.60;;;;;;;0.45;100.00;99053.87;109347;1236;72356;-81
2023/12/14 00:28:19;;;;;;;7.20;6.30;;;;;;;0.46;100.00;99056.56;109411;1237;60445;-82
2023/12/14 00:30:46;;;;;;;10.30;6.10;;;;;;;0.47;100.00;99053.54;109425;1234;60439;-83
2023/12/14 00:33:16;;;;;;;9.00;6.50;;;;;;;0.37;100.00;99053.73;109613;1238;73600;-85
2023/12/14 00:35:47;;;;;;;6.00;4.90;;;;;;;0.32;100.00;99057.25;109917;1239;68847;-87
2023/12/14 00:38:15;;;;;;;6.40;5.30;;;;;;;0.32;100.00;99051.02;109708;1240;72436;-83
2023/12/14 00:40:41;;;;;;;5.00;4.40;;;;;;;0.31;100.00;99047.59;110009;1236;60420;-84
2023/12/14 00:43:09;;;;;;;7.10;5.40;;;;;;;0.26;100.00;99038.42;109783;1234;60459;-85
2023/12/14 00:45:36;;;;;;;5.60;5.00;;;;;;;0.21;100.00;99035.67;109512;1237;74028;-83
2023/12/14 00:48:03;;;;;;;6.10;5.20;;;;;;;0.23;100.00;99029.23;109241;1238;67720;-81
2023/12/14 00:50:31;;;;;;;5.50;4.80;;;;;;;0.25;100.00;99025.83;108882;1235;71337;-80
2023/12/14 00:52:58;;;;;;;7.40;6.20;;;;;;;0.20;100.00;99022.35;108987;1238;60398;-79
2023/12/14 00:55:24;;;;;;;6.50;5.80;;;;;;;0.14;100.00;99023.52;108995;1236;60340;-81
2023/12/14 00:57:54;;;;;;;5.80;5.00;;;;;;;0.16;100.00;99015.98;109682;1233;73822;-80
2023/12/14 01:00:23;;;;;;;6.30;5.40;;;;;;;0.20;100.00;99016.96;111461;1238;68683;-78
2023/12/14 01:02:50;;;;;;;7.00;4.90;;;;;;;0.13;100.00;99013.10;111025;1233;70210;-79
2023/12/14 01:05:17;;;;;;;8.00;6.00;;;;;;;0.12;100.00;99013.23;110958;1233;59950;-79
2023/12/14 01:07:46;;;;;;;5.60;4.70;;;;;;;0.14;100.00;99012.67;110497;1236;58982;-82
2023/12/14 01:10:12;;;;;;;6.80;5.20;;;;;;;0.16;100.00;99009.21;109607;1236;72497;-82
2023/12/14 01:12:39;;;;;;;7.70;6.30;;;;;;;0.12;100.00;99008.13;109879;1235;70213;-81
2023/12/14 01:15:07;;;;;;;6.10;5.30;;;;;;;0.12;100.00;99006.73;109615;1236;71214;-81
2023/12/14 01:17:36;;;;;;;5.60;4.70;;;;;;;0.16;100.00;98999.46;109035;1236;537630;-81
2023/12/14 01:23:01;;;;;;;5.60;4.60;;;;;;;0.14;100.00;99000.71;102656;1295;615868;-81
2023/12/14 01:25:28;;;;;;;5.90;4.80;;;;;;;0.07;100.00;98998.28;105213;1267;59308;-79
2023/12/14 01:27:55;;;;;;;6.10;4.90;;;;;;;0.09;100.00;98999.13;105258;1269;59245;-78
2023/12/14 01:30:23;;;;;;;7.40;4.80;;;;;;;0.11;100.00;98984.34;105319;1269;71078;-77
2023/12/14 01:32:50;;;;;;;5.30;4.30;;;;;;;0.06;100.00;98984.79;105429;1263;70286;-79
2023/12/14 01:35:16;;;;;;;4.70;4.20;;;;;;;0.04;100.00;98982.64;105525;1263;187885;-79
2023/12/14 01:37:43;;;;;;;4.90;4.20;;;;;;;0.06;100.00;98975.01;106003;1260;61082;-79
2023/12/14 01:40:11;;;;;;;6.30;4.00;;;;;;;0.06;100.00;98972.75;106258;1266;59327;-80
2023/12/14 01:42:38;;;;;;;6.00;4.60;;;;;;;-0.03;100.00;98966.14;107449;1261;72296;-80
2023/12/14 01:45:06;;;;;;;5.80;4.70;;;;;;;-0.11;100.00;98958.75;107898;1264;68848;-77
2023/12/14 01:47:33;;;;;;;5.10;4.50;;;;;;;-0.07;100.00;98949.40;105654;1263;72587;-80
2023/12/14 01:49:59;;;;;;;4.60;3.70;;;;;;;-0.05;100.00;98946.14;106015;1264;60974;-78
2023/12/14 01:52:26;;;;;;;5.60;3.90;;;;;;;-0.03;100.00;98951.19;107192;1262;60168;-77
2023/12/14 01:54:55;;;;;;;4.70;3.90;;;;;;;-0.04;100.00;98944.30;107851;1261;73215;-77
2023/12/14 01:57:22;;;;;;;4.50;4.10;;;;;;;-0.04;100.00;98941.83;107891;1260;68846;-83
2023/12/14 01:59:48;;;;;;;3.90;3.20;;;;;;;0.00;100.00;98942.77;105792;1260;72398;-81
2023/12/14 02:02:15;;;;;;;4.80;4.00;;;;;;;0.04;100.00;98935.34;105841;1263;60835;-85
2023/12/14 02:04:42;;;;;;;4.30;3.80;;;;;;;-0.01;100.00;98922.82;105831;1268;60230;-85
2023/12/14 02:07:09;;;;;;;3.60;3.00;;;;;;;-0.02;100.00;98920.45;105995;1262;71512;-85
2023/12/14 02:09:35;;;;;;;4.10;3.40;;;;;;;0.02;100.00;98918.09;105677;1263;68920;-85
2023/12/14 02:12:02;;;;;;;4.80;4.00;;;;;;;0.02;100.00;98912.30;106453;1263;72693;-84
2023/12/14 02:14:29;;;;;;;5.80;4.40;;;;;;;-0.06;100.00;98907.67;105760;1263;59729;-79
2023/12/14 02:16:56;;;;;;;4.00;3.60;;;;;;;-0.11;100.00;98901.52;106361;1261;59650;-80
2023/12/14 02:19:23;;;;;;;4.40;3.60;;;;;;;-0.08;100.00;98895.99;107214;1260;71791;-82
2023/12/14 02:21:49;;;;;;;4.10;3.70;;;;;;;-0.03;100.00;98892.16;107405;1263;70254;-83
2023/12/14 02:24:16;;;;;;;3.80;3.40;;;;;;;-0.04;100.00;98889.08;105578;1263;72720;-82
2023/12/14 02:26:43;;;;;;;4.30;3.80;;;;;;;-0.07;100.00;98883.45;105743;1263;60946;-83
2023/12/14 02:29:29;;;;;;;5.60;3.50;;;;;;;-0.01;100.00;98879.66;106120;1263;59596;-84
2023/12/14 02:31:56;;;;;;;4.20;3.70;;;;;;;0.03;100.00;98872.92;106391;1262;73374;-84
2023/12/14 02:34:24;;;;;;;4.30;3.80;;;;;;;-0.02;100.00;98869.15;108371;1262;69340;-83
2023/12/14 02:36:51;;;;;;;4.70;3.80;;;;;;;-0.04;100.00;98872.56;106729;1266;71405;-84
2023/12/14 02:39:18;;;;;;;5.10;3.60;;;;;;;0.02;100.00;98871.43;105525;1268;60349;-84
2023/12/14 02:41:45;;;;;;;4.30;3.50;;;;;;;0.08;100.00;98862.58;105762;1263;60347;-83
2023/12/14 02:44:12;;;;;;;4.20;3.60;;;;;;;0.04;100.00;98857.11;105962;1266;71825;-84
2023/12/14 02:46:39;;;;;;;3.40;3.10;;;;;;;0.02;100.00;98846.73;105700;1269;70243;-81
2023/12/14 02:49:05;;;;;;;3.30;2.80;;;;;;;0.07;100.00;98850.80;107879;1262;72726;-83
2023/12/14 02:51:32;;;;;;;4.60;3.20;;;;;;;0.10;100.00;98850.71;108670;1264;58225;-83
2023/12/14 02:53:59;;;;;;;4.10;3.20;;;;;;;0.13;100.00;98846.17;106982;1261;59682;-83
2023/12/14 02:56:25;;;;;;;3.80;3.10;;;;;;;0.15;100.00;98836.53;107640;1260;73089;-83
2023/12/14 02:58:53;;;;;;;4.10;3.20;;;;;;;0.15;100.00;98837.95;107453;1263;70250;-82
2023/12/14 03:01:23;;;;;;;3.70;3.10;;;;;;;0.20;100.00;98842.95;105803;1266;71309;-81
2023/12/14 03:03:50;;;;;;;2.90;2.50;;;;;;;0.24;100.00;98842.14;106447;1254;60300;-78
2023/12/14 03:06:17;;;;;;;4.00;3.00;;;;;;;0.21;100.00;98835.27;106279;1258;59660;-81
2023/12/14 03:08:44;;;;;;;3.30;2.70;;;;;;;0.20;100.00;98833.39;106251;1254;72915;-79
2023/12/14 03:11:10;;;;;;;3.30;2.60;;;;;;;0.25;100.00;98837.51;106675;1254;68044;-82
2023/12/14 03:13:37;;;;;;;3.00;2.10;;;;;;;0.29;100.00;98828.67;107388;1254;72570;-82
2023/12/14 03:16:05;;;;;;;3.60;2.80;;;;;;;0.25;100.00;98828.15;108381;1254;58857;-81
2023/12/14 03:18:31;;;;;;;3.10;2.40;;;;;;;0.22;100.00;98824.36;109224;1255;58842;-80
2023/12/14 03:20:58;;;;;;;2.80;2.30;;;;;;;0.27;100.00;98830.07;109358;1253;71614;-80
2023/12/14 03:23:25;;;;;;;2.80;2.10;;;;;;;0.33;100.00;98824.88;109141;1253;68767;-84
2023/12/14 03:25:51;;;;;;;3.60;2.60;;;;;;;0.37;100.00;98820.88;107816;1258;71216;-79
2023/12/14 03:28:18;;;;;;;3.20;2.70;;;;;;;0.34;100.00;98811.75;106888;1254;60016;-82
2023/12/14 03:30:45;;;;;;;2.70;2.40;;;;;;;0.31;100.00;98806.58;107584;1254;60063;-81
2023/12/14 03:33:12;;;;;;;3.30;2.40;;;;;;;0.34;100.00;98798.94;107340;1254;71776;-79
2023/12/14 03:35:41;;;;;;;3.20;2.30;;;;;;;0.39;100.00;98797.35;107885;1254;68785;-82
2023/12/14 03:38:08;;;;;;;2.90;2.40;;;;;;;0.37;100.00;98799.42;107471;1258;71411;-79
2023/12/14 03:40:36;;;;;;;3.40;2.60;;;;;;;0.39;100.00;98796.86;106815;1257;59767;-79
2023/12/14 03:43:03;;;;;;;3.00;2.50;;;;;;;0.44;100.00;98795.00;107540;1254;59988;-82
2023/12/14 03:45:30;;;;;;;3.00;2.70;;;;;;;0.46;100.00;98785.98;109375;1253;71820;-79
2023/12/14 03:47:57;;;;;;;4.50;3.00;;;;;;;0.39;100.00;98789.86;107663;1256;68814;-77
2023/12/14 03:50:23;;;;;;;3.50;2.80;;;;;;;0.39;100.00;98791.45;106668;1254;72485;-77
2023/12/14 03:52:50;;;;;;;3.50;2.70;;;;;;;0.44;100.00;98789.33;106843;1257;60976;-79
2023/12/14 03:55:18;;;;;;;4.20;3.50;;;;;;;0.42;100.00;98782.98;106750;1254;59999;-76
2023/12/14 03:57:44;;;;;;;3.70;3.10;;;;;;;0.37;100.00;98784.47;106458;1259;72847;-75
2023/12/14 04:00:12;;;;;;;3.40;3.00;;;;;;;0.38;100.00;98778.23;106382;1254;70351;-76
2023/12/14 04:02:40;;;;;;;4.50;3.10;;;;;;;0.42;100.00;98776.16;106215;1260;72757;-80
2023/12/14 04:05:10;;;;;;;3.50;3.10;;;;;;;0.42;100.00;98773.80;106900;1254;60584;-78
2023/12/14 04:07:40;;;;;;;3.50;2.70;;;;;;;0.46;100.00;98774.34;106502;1259;60049;-76
2023/12/14 04:10:10;;;;;;;3.20;2.90;;;;;;;0.46;100.00;98774.63;106337;1261;72898;-79
2023/12/14 04:12:38;;;;;;;3.70;3.10;;;;;;;0.40;100.00;98768.86;106370;1257;70332;-79
2023/12/14 04:15:06;;;;;;;3.70;3.10;;;;;;;0.41;100.00;98771.39;106513;1258;72558;-76
2023/12/14 04:17:33;;;;;;;4.10;3.10;;;;;;;0.44;100.00;98774.61;106580;1257;60463;-80
2023/12/14 04:20:00;;;;;;;3.20;2.90;;;;;;;0.41;100.00;98767.79;107989;1254;59628;-81
2023/12/14 04:22:27;;;;;;;3.30;3.00;;;;;;;0.42;100.00;98763.15;108064;1257;71800;-79
2023/12/14 04:24:53;;;;;;;3.80;3.30;;;;;;;0.46;100.00;98761.91;107409;1254;70169;-80
2023/12/14 04:27:20;;;;;;;3.50;2.80;;;;;;;0.43;100.00;98760.10;107759;1254;72695;-79
2023/12/14 04:29:47;;;;;;;3.20;2.90;;;;;;;0.39;100.00;98754.17;107309;1255;59919;-79
2023/12/14 04:32:14;;;;;;;3.70;2.90;;;;;;;0.42;100.00;98756.55;106720;1259;60322;-82
2023/12/14 04:34:41;;;;;;;4.20;3.60;;;;;;;0.44;100.00;98751.84;108507;1254;71625;-82
2023/12/14 04:37:08;;;;;;;3.70;3.30;;;;;;;0.40;100.00;98749.01;107679;1259;68953;-78
2023/12/14 04:39:35;;;;;;;3.40;2.90;;;;;;;0.36;100.00;98750.55;108697;1258;71150;-76
2023/12/14 04:42:02;;;;;;;3.10;2.70;;;;;;;0.39;100.00;98743.67;109183;1254;59561;-78
2023/12/14 04:44:30;;;;;;;3.10;2.70;;;;;;;0.41;100.00;98744.25;109152;1254;58914;-77
2023/12/14 04:46:56;;;;;;;3.10;2.80;;;;;;;0.43;100.00;98740.09;109158;1253;71505;-81
2023/12/14 04:49:23;;;;;;;4.70;3.60;;;;;;;0.35;100.00;98734.45;109189;1254;68837;-80
2023/12/14 04:51:50;;;;;;;3.50;2.90;;;;;;;0.34;100.00;98735.63;108536;1254;70426;-79
2023/12/14 04:54:17;;;;;;;3.40;2.50;;;;;;;0.39;100.00;98732.05;109333;1254;59731;-80
2023/12/14 04:56:47;;;;;;;3.60;3.00;;;;;;;0.40;100.00;98733.38;109088;1257;59830;-82
2023/12/14 04:59:13;;;;;;;3.60;2.90;;;;;;;0.32;100.00;98726.48;109055;1254;71780;-80
2023/12/14 05:01:40;;;;;;;4.50;3.40;;;;;;;0.29;100.00;98729.54;108913;1254;68877;-78
2023/12/14 05:04:07;;;;;;;2.80;2.50;;;;;;;0.35;100.00;98724.54;108522;1254;71405;-78
2023/12/14 05:06:35;;;;;;;3.40;2.70;;;;;;;0.37;100.00;98722.09;108808;1254;59361;-78
2023/12/14 05:09:05;;;;;;;3.60;3.20;;;;;;;0.31;100.00;98713.55;108972;1254;59672;-78
2023/12/14 05:11:32;;;;;;;3.30;2.80;;;;;;;0.30;100.00;98713.77;109160;1254;70669;-77
2023/12/14 05:13:59;;;;;;;2.80;2.60;;;;;;;0.33;100.00;98715.30;109021;1254;68867;-77
2023/12/14 05:16:26;;;;;;;3.40;2.70;;;;;;;0.30;100.00;98712.54;108991;1254;70230;-80
2023/12/14 05:18:56;;;;;;;3.40;3.10;;;;;;;0.22;100.00;98706.98;109096;1254;58014;-76
2023/12/14 05:21:23;;;;;;;3.90;2.90;;;;;;;0.19;100.00;98699.02;109337;1254;58998;-76
2023/12/14 05:23:50;;;;;;;3.40;2.80;;;;;;;0.22;100.00;98704.23;109341;1254;71547;-79
2023/12/14 05:26:17;;;;;;;4.20;3.30;;;;;;;0.23;100.00;98698.18;109252;1254;68962;-80
2023/12/14 05:28:44;;;;;;;4.00;3.00;;;;;;;0.18;100.00;98692.98;109420;1254;71436;-83
2023/12/14 05:31:11;;;;;;;3.80;3.30;;;;;;;0.18;100.00;98697.67;109367;1254;59758;-82
2023/12/14 05:33:39;;;;;;;5.60;3.70;;;;;;;0.18;100.00;98691.63;109176;1254;58986;-82
2023/12/14 05:36:10;;;;;;;4.10;3.70;;;;;;;0.09;100.00;98688.36;109448;1254;72307;-82
2023/12/14 05:38:40;;;;;;;4.40;3.20;;;;;;;0.10;100.00;98684.45;109435;1254;69123;-80
2023/12/14 05:41:07;;;;;;;4.60;4.00;;;;;;;0.15;100.00;98687.82;109480;1254;71206;-81
2023/12/14 05:43:34;;;;;;;4.40;3.60;;;;;;;0.15;100.00;98684.01;109131;1254;59149;-80
2023/12/14 05:46:00;;;;;;;4.80;3.80;;;;;;;0.06;100.00;98683.04;109160;1253;60342;-82
2023/12/14 05:48:29;;;;;;;5.10;3.50;;;;;;;-0.01;100.00;98679.58;109317;1254;71669;-81
2023/12/14 05:51:00;;;;;;;3.50;3.10;;;;;;;0.03;100.00;98674.10;108865;1254;69486;-80
2023/12/14 05:53:27;;;;;;;4.40;3.80;;;;;;;0.04;100.00;98678.23;108994;1254;71400;-80
2023/12/14 05:55:54;;;;;;;4.50;3.70;;;;;;;-0.01;100.00;98672.64;108926;1254;59205;-81
2023/12/14 05:58:21;;;;;;;4.80;3.90;;;;;;;-0.06;100.00;98672.16;109097;1254;58802;-80
2023/12/14 06:00:47;;;;;;;4.00;3.50;;;;;;;-0.02;100.00;98666.27;109171;1254;72656;-80
2023/12/14 06:03:14;;;;;;;4.50;3.80;;;;;;;0.02;100.00;98668.45;107717;1254;68045;-81
2023/12/14 06:05:41;;;;;;;3.90;3.40;;;;;;;-0.03;100.00;98671.98;106400;1254;71808;-81
2023/12/14 06:08:08;;;;;;;4.30;3.40;;;;;;;-0.11;100.00;98674.04;106255;1254;61157;-80
2023/12/14 06:10:36;;;;;;;4.40;3.80;;;;;;;-0.11;100.00;98676.40;106789;1254;60325;-81
2023/12/14 06:13:03;;;;;;;4.10;3.30;;;;;;;-0.13;100.00;98669.16;107054;1254;73704;-81
2023/12/14 06:15:30;;;;;;;5.40;4.00;;;;;;;-0.15;100.00;98666.84;106580;1257;69314;-81
2023/12/14 06:17:57;;;;;;;5.50;4.00;;;;;;;-0.19;100.00;98663.15;106090;1259;71215;-81
2023/12/14 06:20:24;;;;;;;4.00;3.60;;;;;;;-0.17;100.00;98664.95;107199;1257;60376;-79
2023/12/14 06:22:51;;;;;;;5.20;4.50;;;;;;;-0.16;100.00;98665.23;107182;1259;60374;-80
2023/12/14 06:25:17;;;;;;;6.10;4.30;;;;;;;-0.17;100.00;98664.55;106281;1260;72414;-78
2023/12/14 06:27:44;;;;;;;4.70;4.10;;;;;;;-0.18;100.00;98657.36;106440;1259;68040;-78
2023/12/14 06:30:12;;;;;;;4.50;3.90;;;;;;;-0.14;100.00;98651.82;108569;1254;72727;-81
2023/12/14 06:32:40;;;;;;;4.80;4.10;;;;;;;-0.13;100.00;98653.33;109367;1254;59458;-83
2023/12/14 06:35:08;;;;;;;5.20;4.20;;;;;;;-0.15;100.00;98654.50;106589;1260;59252;-84
2023/12/14 06:37:35;;;;;;;4.80;4.10;;;;;;;-0.13;100.00;98653.25;108145;1259;72936;-81
2023/12/14 06:40:02;;;;;;;4.90;3.80;;;;;;;-0.10;100.00;98650.11;107748;1254;68890;-81
2023/12/14 06:42:31;;;;;;;5.00;4.50;;;;;;;-0.10;100.00;98645.55;106817;1255;73483;-82
2023/12/14 06:44:58;;;;;;;6.00;4.20;;;;;;;-0.09;100.00;98642.71;106422;1259;60488;-83
2023/12/14 06:47:25;;;;;;;6.20;5.00;;;;;;;-0.06;100.00;98639.83;106598;1254;60449;-84
2023/12/14 06:49:56;;;;;;;5.70;4.50;;;;;;;-0.07;100.00;98641.31;106902;1254;72362;-83
2023/12/14 06:52:24;;;;;;;5.80;4.60;;;;;;;-0.07;100.00;98639.00;107994;1254;69167;-87
2023/12/14 06:54:52;;;;;;;7.30;4.80;;;;;;;-0.01;100.00;98636.13;107311;1260;71794;-88
2023/12/14 06:57:20;;;;;;;5.10;4.60;;;;;;;0.00;100.00;98632.88;106578;1257;60347;-83
2023/12/14 06:59:50;;;;;;;6.30;5.10;;;;;;;-0.09;100.00;98628.58;106497;1255;61321;-84
2023/12/14 07:02:17;;;;;;;6.60;4.60;;;;;;;-0.09;100.00;98630.35;106489;1262;74313;-81
2023/12/14 07:04:45;;;;;;;5.30;4.30;;;;;;;-0.04;100.00;98625.39;106566;1263;70386;-83
2023/12/14 07:07:12;;;;;;;5.40;4.50;;;;;;;-0.00;100.00;98623.16;106840;1254;71390;-83
2023/12/14 07:09:40;;;;;;;5.90;5.00;;;;;;;-0.03;100.00;98623.40;107085;1257;60412;-83
2023/12/14 07:12:11;;;;;;;5.70;4.60;;;;;;;-0.05;100.00;98627.67;107766;1255;60441;-82
2023/12/14 07:14:39;;;;;;;5.80;5.10;;;;;;;0.03;100.00;98623.61;108106;1254;73793;-82
2023/12/14 07:17:07;;;;;;;5.00;4.50;;;;;;;0.09;100.00;98616.48;108718;1255;70444;-83
2023/12/14 07:19:40;;;;;;;5.80;5.20;;;;;;;0.05;100.00;98614.67;108147;1254;71429;-83
2023/12/14 07:22:10;;;;;;;6.50;5.50;;;;;;;0.02;100.00;98603.85;107812;1260;60234;-82
2023/12/14 07:24:37;;;;;;;8.50;5.70;;;;;;;0.08;100.00;98600.14;108660;1254;59036;-82
2023/12/14 07:27:18;;;;;;;7.20;6.10;;;;;;;0.15;100.00;98597.11;109217;1255;73386;-82
2023/12/14 07:29:46;;;;;;;7.00;5.50;;;;;;;0.16;100.00;98597.73;108568;1254;69230;-81
2023/12/14 07:32:13;;;;;;;7.60;6.10;;;;;;;0.24;100.00;98595.89;108001;1254;72697;-83
2023/12/14 07:34:52;;;;;;;8.30;6.70;;;;;;;0.25;100.00;98590.55;107675;1254;60388;-82
2023/12/14 07:37:26;;;;;;;6.40;5.50;;;;;;;0.27;100.00;98592.64;107661;1255;59215;-83
2023/12/14 07:39:54;;;;;;;7.20;6.50;;;;;;;0.33;100.00;98594.23;107369;1260;73791;-83
2023/12/14 07:42:26;;;;;;;8.20;6.60;;;;;;;0.37;100.00;98591.75;107366;1254;68943;-83
2023/12/14 07:44:54;;;;;;;8.30;7.10;;;;;;;0.35;100.00;98597.23;108880;1256;71451;-84
2023/12/14 07:47:22;;;;;;;8.30;6.70;;;;;;;0.32;100.00;98601.97;108820;1256;59989;-83
2023/12/14 07:49:50;;;;;;;8.20;7.20;;;;;;;0.35;100.00;98592.53;106876;1261;60383;-84
2023/12/14 07:52:17;;;;;;;11.10;7.70;;;;;;;0.35;100.00;98583.58;106685;1259;72863;-85
2023/12/14 07:54:46;;;;;;;10.70;7.80;;;;;;;0.38;100.00;98586.02;107252;1256;70751;-84
2023/12/14 07:57:14;;;;;;;8.70;7.30;;;;;;;0.34;100.00;98586.11;107279;1254;72012;-83
2023/12/14 07:59:41;;;;;;;8.50;7.40;;;;;;;0.33;100.00;98588.00;107441;1255;61051;-84
2023/12/14 08:02:10;;;;;;;10.70;8.30;;;;;;;0.38;100.00;98581.95;107657;1258;60443;-84
2023/12/14 08:04:37;;;;;;;13.30;8.20;;;;;;;0.42;100.00;98586.49;109050;1254;72811;-84
2023/12/14 08:07:05;;;;;;;11.00;8.30;;;;;;;0.41;100.00;98584.50;108083;1254;69050;-83
2023/12/14 08:09:33;;;;;;;11.80;8.50;;;;;;;0.45;100.00;98578.96;106851;1254;72409;-86
2023/12/14 08:12:01;;;;;;;10.20;8.30;;;;;;;0.46;100.00;98574.81;106715;1254;61076;-85
2023/12/14 08:14:29;;;;;;;11.00;6.90;;;;;;;0.51;100.00;98583.49;106781;1257;60428;-84
2023/12/14 08:16:57;;;;;;;8.90;7.10;;;;;;;0.48;100.00;98570.15;106892;1254;73011;-83
2023/12/14 08:19:24;;;;;;;6.90;5.40;;;;;;;0.44;100.00;98568.73;108641;1254;68960;-81
2023/12/14 08:21:51;;;;;;;7.30;5.80;;;;;;;0.47;100.00;98557.30;109489;1253;71398;-83
2023/12/14 08:24:18;;;;;;;10.10;8.00;;;;;;;0.48;100.00;98547.45;108974;1254;58993;-85
2023/12/14 08:26:45;;;;;;;9.80;7.00;;;;;;;0.49;100.00;98548.50;108086;1255;59146;-85
2023/12/14 08:29:13;;;;;;;6.80;4.90;;;;;;;0.53;100.00;98544.98;108064;1256;73651;-85
2023/12/14 08:31:43;;;;;;;7.50;5.60;;;;;;;0.56;100.00;98533.52;108981;1254;68251;-85
2023/12/14 08:34:21;;;;;;;6.60;5.30;;;;;;;0.54;100.00;98536.30;108341;1261;72759;-84
2023/12/14 08:37:03;;;;;;;5.40;4.80;;;;;;;0.62;99.88;98535.16;107520;1253;61724;-84
2023/12/14 08:39:30;;;;;;;5.90;5.20;;;;;;;0.62;99.97;98527.33;107277;1259;60313;-86
2023/12/14 08:41:57;;;;;;;6.20;5.20;;;;;;;0.63;100.00;98524.60;107375;1257;74038;-84
2023/12/14 08:44:24;;;;;;;6.20;5.00;;;;;;;0.62;100.00;98526.44;106963;1255;69266;-83
2023/12/14 08:47:08;;;;;;;6.90;6.20;;;;;;;0.63;100.00;98529.60;107887;1254;72418;-84
2023/12/14 08:50:00;;;;;;;6.00;4.80;;;;;;;0.63;100.00;98532.96;107787;1257;62021;-82
2023/12/14 08:52:27;;;;;;;6.40;5.50;;;;;;;0.66;100.00;98527.61;107791;1255;60273;-85
2023/12/14 08:54:54;;;;;;;6.60;4.30;;;;;;;0.71;100.00;98530.31;107549;1254;73197;-85
2023/12/14 08:57:24;;;;;;;5.50;4.80;;;;;;;0.74;100.00;98525.52;107579;1254;69233;-84
2023/12/14 08:59:51;;;;;;;6.60;5.20;;;;;;;0.68;100.00;98518.42;106975;1257;71678;-85
2023/12/14 09:02:19;;;;;;;6.00;5.30;;;;;;;0.62;100.00;98518.76;106924;1254;60543;-82
2023/12/14 09:04:55;;;;;;;5.90;4.00;;;;;;;0.65;99.96;98513.27;106599;1254;60921;-82
2023/12/14 09:07:52;;;;;;;5.30;4.10;;;;;;;0.66;99.48;98509.01;106948;1253;72918;-80
2023/12/14 09:10:20;;;;;;;6.50;3.90;;;;;;;0.64;99.49;98493.67;106836;1254;68947;-83
2023/12/14 09:12:47;;;;;;;6.90;5.50;;;;;;;0.59;99.93;98484.66;106243;1259;70879;-79
2023/12/14 09:15:15;;;;;;;6.70;5.10;;;;;;;0.54;99.98;98487.05;107901;1254;60555;-80
2023/12/14 09:17:43;;;;;;;5.60;4.40;;;;;;;0.50;100.00;98493.88;109094;1253;59268;-78
2023/12/14 09:20:16;;;;;;;6.20;5.10;;;;;;;0.56;100.00;98491.88;108237;1254;72709;-77
2023/12/14 09:22:43;;;;;;;7.10;4.90;;;;;;;0.62;99.99;98479.73;107062;1254;70714;-80
2023/12/14 09:25:10;;;;;;;5.20;4.60;;;;;;;0.57;100.00;98479.80;106276;1254;70677;-79
2023/12/14 09:27:38;;;;;;;8.20;5.00;;;;;;;0.51;100.00;98476.88;106363;1257;60441;-77
2023/12/14 11:52:52;;;;;;;9.90;8.00;;;;;;;0.55;100.00;98361.11;106004;1282;613530;-81
2023/12/14 11:55:21;;;;;;;10.90;8.60;;;;;;;1.01;100.00;98349.66;103755;1266;3644381;-81
2023/12/14 11:57:49;;;;;;;10.70;8.40;;;;;;;1.12;100.00;98361.36;107265;1262;59306;-82
2023/12/14 12:00:17;;;;;;;16.70;8.70;;;;;;;1.22;100.00;98364.84;107297;1262;70813;-81
2023/12/14 12:02:45;;;;;;;10.30;8.50;;;;;;;1.27;100.00;98360.52;107934;1254;68578;-82
2023/12/14 12:05:18;;;;;;;13.40;9.30;;;;;;;1.33;100.00;98363.92;107264;1256;75949;-81
2023/12/14 12:07:46;;;;;;;15.10;11.60;;;;;;;1.40;100.00;98363.70;107105;1258;60809;-84
2023/12/14 12:10:14;;;;;;;19.00;11.80;;;;;;;1.42;100.00;98367.02;107337;1254;59441;-81
2023/12/14 12:12:42;;;;;;;16.80;12.70;;;;;;;1.40;100.00;98374.52;107739;1254;74487;-81
2023/12/14 12:15:13;;;;;;;14.80;12.80;;;;;;;1.46;100.00;98375.17;108240;1254;69650;-79
2023/12/14 12:17:41;;;;;;;15.90;12.00;;;;;;;1.49;100.00;98378.38;108110;1254;71532;-81
2023/12/14 12:20:10;;;;;;;19.20;11.90;;;;;;;1.56;100.00;98369.70;108407;1258;62751;-83
2023/12/14 12:22:39;;;;;;;15.80;11.80;;;;;;;1.62;100.00;98369.81;107958;1256;61009;-81
2023/12/14 12:25:07;;;;;;;13.80;11.50;;;;;;;1.60;100.00;98369.10;108791;1254;75217;-82
2023/12/14 12:27:43;;;;;;;14.20;10.60;;;;;;;1.67;100.00;98363.27;109381;1254;70320;-82
2023/12/14 12:30:11;;;;;;;13.80;10.80;;;;;;;1.81;100.00;98361.86;108467;1255;73349;-82
2023/12/14 12:32:39;;;;;;;13.80;11.80;;;;;;;1.87;100.00;98366.05;108234;1258;60233;-81
2023/12/14 12:35:08;;;;;;;13.60;11.40;;;;;;;1.96;100.00;98368.48;107747;1253;59669;-83
2023/12/14 12:37:37;;;;;;;13.90;12.10;;;;;;;2.08;100.00;98369.07;107961;1253;72293;-81
2023/12/14 12:40:07;;;;;;;16.80;12.50;;;;;;;2.09;100.00;98376.38;107224;1253;71011;-82
2023/12/14 12:42:35;;;;;;;17.20;12.60;;;;;;;2.10;100.00;98382.34;106577;1256;72781;-83
2023/12/14 12:45:04;;;;;;;19.00;13.60;;;;;;;2.19;100.00;98381.66;105868;1255;62379;-80
2023/12/14 12:47:33;;;;;;;22.70;15.30;;;;;;;2.20;100.00;98379.54;106141;1254;59713;-82
2023/12/14 12:50:02;;;;;;;26.90;20.00;;;;;;;2.20;100.00;98379.17;106020;1260;75498;-80
2023/12/14 12:52:30;;;;;;;28.50;20.20;;;;;;;2.22;100.00;98380.93;105986;1258;69079;-81
2023/12/14 12:54:58;;;;;;;28.70;19.60;;;;;;;2.17;100.00;98382.77;106278;1254;74737;-83
2023/12/14 12:57:27;;;;;;;25.40;19.10;;;;;;;2.13;100.00;98381.48;108338;1254;62966;-88
2023/12/14 12:59:55;;;;;;;26.30;19.80;;;;;;;2.16;100.00;98379.48;109263;1256;60944;-81
2023/12/14 13:02:24;;;;;;;22.70;17.50;;;;;;;2.12;100.00;98377.41;108880;1256;73974;-83
2023/12/14 13:04:52;;;;;;;21.80;16.70;;;;;;;2.15;100.00;98371.40;107363;1254;72394;-84
2023/12/14 13:07:21;;;;;;;21.40;16.50;;;;;;;2.24;100.00;98376.50;106475;1255;74346;-82
2023/12/14 13:09:51;;;;;;;24.10;17.90;;;;;;;2.23;100.00;98372.36;106482;1261;60922;-83
2023/12/14 13:12:19;;;;;;;22.00;16.40;;;;;;;2.24;100.00;98386.45;106322;1260;60172;-84
2023/12/14 13:14:47;;;;;;;21.00;17.00;;;;;;;2.29;100.00;98397.81;106304;1262;76909;-84
2023/12/14 13:17:17;;;;;;;20.70;15.90;;;;;;;2.28;100.00;98401.11;108642;1254;72290;-83
2023/12/14 13:19:46;;;;;;;19.10;15.60;;;;;;;2.28;100.00;98398.65;109251;1254;73691;-84
2023/12/14 13:22:14;;;;;;;21.40;17.50;;;;;;;2.32;100.00;98397.42;108331;1256;59205;-84
2023/12/14 13:24:42;;;;;;;23.10;17.50;;;;;;;2.21;100.00;98395.27;107781;1257;60632;-84
2023/12/14 13:27:09;;;;;;;20.10;15.90;;;;;;;2.14;100.00;98403.48;107092;1260;73952;-85
2023/12/14 13:29:37;;;;;;;24.90;18.20;;;;;;;2.13;100.00;98413.33;106262;1262;72504;-85
2023/12/14 13:32:05;;;;;;;26.40;19.60;;;;;;;2.12;100.00;98413.25;106617;1260;70409;-85
2023/12/14 13:34:34;;;;;;;28.40;20.70;;;;;;;2.15;100.00;98410.15;107004;1262;60725;-87
2023/12/14 13:37:05;;;;;;;32.30;21.90;;;;;;;2.22;100.00;98413.05;107148;1257;60437;-87
2023/12/14 13:39:37;;;;;;;50.40;30.00;;;;;;;2.23;100.00;98428.67;106662;1267;71843;-82
2023/12/14 13:42:09;;;;;;;50.70;33.30;;;;;;;2.26;100.00;98426.14;106696;1260;71210;-85
2023/12/14 13:44:39;;;;;;;58.40;35.90;;;;;;;2.29;100.00;98425.06;106473;1256;72855;-82
2023/12/14 13:47:06;;;;;;;55.80;33.00;;;;;;;2.16;100.00;98429.11;106073;1257;60195;-80
2023/12/14 13:49:34;;;;;;;48.40;32.60;;;;;;;2.07;100.00;98435.92;105743;1258;59641;-80
2023/12/14 13:52:03;;;;;;;50.80;33.70;;;;;;;2.08;100.00;98438.95;105920;1260;74055;-83